createdAt,value
2023-05-18T00:02:18.824Z,4.55
2023-05-18T00:04:45.723Z,4.40
2023-05-18T00:07:13.110Z,4.13
2023-05-18T00:09:40.969Z,4.47
2023-05-18T00:12:09.136Z,4.75
2023-05-18T00:14:35.695Z,4.55
2023-05-18T00:17:03.141Z,4.70
2023-05-18T00:19:32.476Z,4.13
2023-05-18T00:21:59.056Z,4.28
2023-05-18T00:24:25.627Z,4.25
2023-05-18T00:26:52.191Z,4.65
2023-05-18T00:29:18.685Z,4.00
2023-05-18T00:31:45.944Z,4.00
2023-05-18T00:34:13.616Z,4.30
2023-05-18T00:36:40.420Z,4.68
2023-05-18T00:39:07.328Z,4.05
2023-05-18T00:41:33.886Z,4.10
2023-05-18T00:44:00.759Z,3.90
2023-05-18T00:46:27.813Z,4.05
2023-05-18T00:48:55.159Z,4.53
2023-05-18T00:51:23.336Z,4.40
2023-05-18T00:53:50.537Z,4.40
2023-05-18T00:56:17.265Z,4.68
2023-05-18T00:58:43.777Z,4.85
2023-05-18T01:01:10.350Z,4.35
2023-05-18T01:03:39.591Z,4.47
2023-05-18T01:06:06.716Z,4.78
2023-05-18T01:08:33.968Z,4.03
2023-05-18T01:11:11.858Z,4.50
2023-05-18T01:13:47.228Z,4.10
2023-05-18T01:16:16.623Z,4.40
2023-05-18T01:18:59.023Z,4.75
2023-05-18T01:21:57.535Z,5.22
2023-05-18T01:24:36.391Z,5.25
2023-05-18T01:27:03.832Z,4.55
2023-05-18T01:29:31.020Z,4.28
2023-05-18T01:31:58.151Z,4.78
2023-05-18T01:34:24.668Z,4.32
2023-05-18T01:36:51.426Z,4.70
2023-05-18T01:39:18.014Z,4.40
2023-05-18T01:42:06.872Z,5.20
2023-05-18T01:44:39.853Z,4.47
2023-05-18T01:47:09.267Z,4.25
2023-05-18T01:50:00.174Z,5.57
2023-05-18T01:52:39.040Z,4.95
2023-05-18T01:55:06.158Z,4.35
2023-05-18T01:57:33.347Z,4.30
2023-05-18T02:00:04.201Z,5.40
2023-05-18T02:02:30.829Z,4.88
2023-05-18T02:04:57.422Z,4.20
2023-05-18T02:07:23.967Z,4.68
2023-05-18T02:09:50.592Z,5.28
2023-05-18T02:12:17.141Z,5.28
2023-05-18T02:14:43.674Z,4.93
2023-05-18T02:17:10.272Z,5.05
2023-05-18T02:19:38.126Z,3.85
2023-05-18T02:22:08.164Z,3.92
2023-05-18T02:24:34.730Z,4.22
2023-05-18T02:27:01.415Z,4.53
2023-05-18T02:29:27.991Z,4.63
2023-05-18T02:31:54.730Z,4.82
2023-05-18T02:34:22.759Z,4.72
2023-05-18T02:36:49.396Z,4.53
2023-05-18T02:39:16.230Z,4.65
2023-05-18T02:41:42.766Z,4.57
2023-05-18T02:44:09.294Z,4.55
2023-05-18T02:46:35.930Z,4.57
2023-05-18T02:49:02.452Z,4.50
2023-05-18T02:51:29.955Z,4.10
2023-05-18T02:53:57.508Z,4.70
2023-05-18T02:56:24.730Z,4.35
2023-05-18T02:58:57.451Z,4.38
2023-05-18T03:01:27.185Z,5.03
2023-05-18T03:03:54.416Z,5.53
2023-05-18T03:06:26.351Z,5.47
2023-05-18T03:08:56.095Z,5.07
2023-05-18T03:11:23.281Z,5.47
2023-05-18T03:13:50.079Z,4.60
2023-05-18T03:16:16.736Z,4.40
2023-05-18T03:18:43.396Z,4.68
2023-05-18T03:21:10.062Z,4.72
2023-05-18T03:23:36.576Z,4.72
2023-05-18T03:26:03.872Z,4.43
2023-05-18T03:28:30.803Z,4.57
2023-05-18T03:30:57.749Z,4.53
2023-05-18T03:33:24.358Z,4.95
2023-05-18T03:35:52.475Z,4.18
2023-05-18T03:38:19.413Z,4.10
2023-05-18T03:40:45.950Z,4.78
2023-05-18T03:43:12.512Z,4.45
2023-05-18T03:45:39.020Z,4.60
2023-05-18T03:48:06.283Z,4.85
2023-05-18T03:50:33.781Z,4.55
2023-05-18T03:53:00.293Z,4.53
2023-05-18T03:55:26.855Z,4.43
2023-05-18T03:57:53.885Z,4.60
2023-05-18T04:00:20.404Z,4.30
2023-05-18T04:02:47.356Z,4.75
2023-05-18T04:05:14.039Z,4.32
2023-05-18T04:07:44.102Z,4.75
2023-05-18T04:10:11.972Z,4.43
2023-05-18T04:12:38.725Z,4.10
2023-05-18T04:15:05.680Z,4.38
2023-05-18T04:17:33.439Z,4.47
2023-05-18T04:20:00.082Z,4.40
2023-05-18T04:22:29.800Z,4.90
2023-05-18T04:24:57.242Z,4.70
2023-05-18T04:27:23.839Z,4.00
2023-05-18T04:29:50.407Z,4.82
2023-05-18T04:32:18.476Z,4.30
2023-05-18T04:34:49.459Z,4.53
2023-05-18T04:37:17.922Z,4.10
2023-05-18T04:39:44.512Z,4.80
2023-05-18T04:42:14.128Z,6.22
2023-05-18T04:44:40.704Z,5.85
2023-05-18T04:47:08.490Z,5.68
2023-05-18T04:49:35.108Z,5.70
2023-05-18T04:52:01.644Z,3.72
2023-05-18T04:54:30.773Z,4.45
2023-05-18T04:56:57.695Z,3.50
2023-05-18T04:59:26.234Z,4.40
2023-05-18T05:01:53.490Z,4.43
2023-05-18T05:04:21.137Z,4.20
2023-05-18T05:06:47.784Z,4.57
2023-05-18T05:09:14.790Z,3.63
2023-05-18T05:11:41.797Z,3.95
2023-05-18T05:14:08.405Z,4.35
2023-05-18T05:16:35.276Z,2.80
2023-05-18T05:19:02.116Z,2.97
2023-05-18T05:21:28.766Z,2.80
2023-05-18T05:23:55.441Z,3.45
2023-05-18T05:26:22.003Z,3.28
2023-05-18T05:28:48.566Z,3.38
2023-05-18T05:31:15.201Z,2.83
2023-05-18T05:33:42.814Z,3.05
2023-05-18T05:36:09.388Z,3.03
2023-05-18T05:38:35.920Z,3.35
2023-05-18T05:41:02.482Z,3.80
2023-05-18T05:43:29.029Z,2.90
2023-05-18T05:45:55.549Z,2.90
2023-05-18T05:48:22.546Z,2.92
2023-05-18T05:50:49.112Z,3.63
2023-05-18T05:53:17.931Z,2.65
2023-05-18T05:55:44.637Z,2.90
2023-05-18T05:58:11.194Z,3.20
2023-05-18T06:00:37.710Z,3.20
2023-05-18T06:03:04.316Z,2.58
2023-05-18T06:05:31.142Z,3.90
2023-05-18T06:07:57.941Z,4.28
2023-05-18T06:10:24.536Z,2.95
2023-05-18T06:12:51.083Z,3.50
2023-05-18T06:15:18.613Z,2.80
2023-05-18T06:17:45.348Z,2.58
2023-05-18T06:20:12.680Z,3.13
2023-05-18T06:22:39.610Z,2.60
2023-05-18T06:25:06.255Z,2.90
2023-05-18T06:27:33.055Z,3.33
2023-05-18T06:29:59.594Z,3.50
2023-05-18T06:32:26.349Z,2.92
2023-05-18T06:34:52.963Z,2.83
2023-05-18T06:37:21.285Z,2.88
2023-05-18T06:39:48.834Z,3.17
2023-05-18T06:42:15.402Z,3.50
2023-05-18T06:44:41.944Z,3.17
2023-05-18T06:47:08.549Z,3.17
2023-05-18T06:49:35.073Z,2.90
2023-05-18T06:52:01.594Z,3.30
2023-05-18T06:54:30.169Z,3.05
2023-05-18T06:56:56.679Z,3.88
2023-05-18T06:59:23.469Z,3.28
2023-05-18T07:01:50.112Z,3.00
2023-05-18T07:04:19.210Z,2.58
2023-05-18T07:06:46.407Z,3.03
2023-05-18T07:09:13.115Z,2.88
2023-05-18T07:11:42.440Z,3.25
2023-05-18T07:14:08.982Z,2.30
2023-05-18T07:16:35.880Z,3.25
2023-05-18T07:19:03.576Z,2.75
2023-05-18T07:21:30.254Z,3.08
2023-05-18T07:23:56.889Z,2.60
2023-05-18T07:26:23.521Z,3.22
2023-05-18T07:28:51.360Z,2.97
2023-05-18T07:31:21.168Z,3.08
2023-05-18T07:33:48.220Z,3.20
2023-05-18T07:36:15.300Z,3.10
2023-05-18T07:38:41.888Z,3.00
2023-05-18T07:41:08.419Z,3.20
2023-05-18T07:43:34.976Z,2.70
2023-05-18T07:46:01.592Z,2.88
2023-05-18T07:48:28.136Z,2.67
2023-05-18T07:50:54.647Z,2.65
2023-05-18T07:53:21.186Z,2.35
2023-05-18T07:55:47.869Z,3.20
2023-05-18T07:58:14.699Z,3.25
2023-05-18T08:00:41.489Z,2.30
2023-05-18T08:03:08.666Z,2.72
2023-05-18T08:05:35.350Z,3.35
2023-05-18T08:08:04.531Z,2.42
2023-05-18T08:10:33.265Z,3.40
2023-05-18T08:12:59.788Z,3.88
2023-05-18T08:15:26.346Z,2.47
2023-05-18T08:17:52.933Z,2.92
2023-05-18T08:20:19.503Z,3.33
2023-05-18T08:22:46.162Z,2.83
2023-05-18T08:25:12.810Z,2.38
2023-05-18T08:27:39.341Z,2.63
2023-05-18T08:30:06.491Z,2.85
2023-05-18T08:32:33.119Z,3.45
2023-05-18T08:35:00.398Z,2.40
2023-05-18T08:37:29.480Z,4.25
2023-05-18T08:39:56.526Z,2.65
2023-05-18T08:42:34.420Z,2.28
2023-05-18T08:45:13.166Z,2.90
2023-05-18T08:47:40.014Z,2.80
2023-05-18T08:50:07.247Z,3.15
2023-05-18T08:52:37.122Z,3.22
2023-05-18T08:55:08.474Z,2.38
2023-05-18T08:57:36.714Z,2.75
2023-05-18T09:00:04.886Z,3.17
2023-05-18T09:02:32.100Z,3.10
2023-05-18T09:04:59.088Z,2.75
2023-05-18T09:07:27.570Z,3.50
2023-05-18T09:09:54.981Z,2.50
2023-05-18T09:12:24.474Z,2.85
2023-05-18T09:14:51.510Z,2.85
2023-05-18T09:17:18.051Z,3.13
2023-05-18T09:19:44.586Z,2.60
2023-05-18T09:22:11.187Z,3.85
2023-05-18T09:24:37.972Z,4.57
2023-05-18T09:27:05.253Z,2.85
2023-05-18T09:29:32.962Z,2.72
2023-05-18T09:32:06.877Z,5.38
2023-05-18T09:34:40.933Z,3.50
2023-05-18T09:37:07.472Z,2.63
2023-05-18T09:39:33.990Z,3.15
2023-05-18T09:42:00.899Z,2.45
2023-05-18T09:44:36.640Z,2.38
2023-05-18T09:47:12.515Z,3.05
2023-05-18T09:49:40.576Z,2.55
2023-05-18T09:52:08.967Z,3.10
2023-05-18T09:54:36.521Z,3.47
2023-05-18T09:57:10.765Z,2.90
2023-05-18T09:59:37.758Z,3.35
2023-05-18T10:02:09.057Z,3.00
2023-05-18T10:04:44.905Z,3.22
2023-05-18T10:07:12.581Z,3.40
2023-05-18T10:09:40.664Z,2.80
2023-05-18T10:12:25.129Z,2.90
2023-05-18T10:14:51.665Z,3.50
2023-05-18T10:17:18.434Z,2.90
2023-05-18T10:19:45.120Z,3.03
2023-05-18T10:22:11.669Z,3.10
2023-05-18T10:24:43.296Z,3.38
2023-05-18T10:27:10.103Z,3.50
2023-05-18T10:29:37.463Z,3.35
2023-05-18T10:32:07.005Z,3.03
2023-05-18T10:34:34.563Z,2.95
2023-05-18T10:37:04.239Z,2.70
2023-05-18T10:39:34.657Z,2.60
2023-05-18T10:42:01.216Z,3.28
2023-05-18T10:44:27.773Z,3.30
2023-05-18T10:46:54.639Z,2.95
2023-05-18T10:49:25.251Z,3.63
2023-05-18T10:51:55.150Z,2.78
2023-05-18T10:54:22.390Z,3.80
2023-05-18T10:56:52.188Z,3.38
2023-05-18T10:59:18.935Z,2.78
2023-05-18T11:01:46.340Z,4.35
2023-05-18T11:04:13.033Z,3.70
2023-05-18T11:06:39.824Z,3.20
2023-05-18T11:09:06.376Z,2.90
2023-05-18T11:12:05.648Z,2.80
2023-05-18T11:14:32.465Z,2.78
2023-05-18T11:17:21.240Z,3.35
2023-05-18T11:20:05.939Z,3.33
2023-05-18T11:22:48.148Z,3.55
2023-05-18T11:25:32.529Z,3.20
2023-05-18T11:28:01.994Z,2.65
2023-05-18T11:30:34.618Z,3.42
2023-05-18T11:33:28.351Z,2.80
2023-05-18T11:36:04.378Z,3.30
2023-05-18T11:38:46.063Z,3.00
2023-05-18T11:41:42.633Z,3.38
2023-05-18T11:44:11.964Z,3.45
2023-05-18T11:46:40.883Z,3.67
2023-05-18T11:49:07.508Z,2.78
2023-05-18T11:51:34.324Z,3.67
2023-05-18T11:54:01.506Z,3.80
2023-05-18T11:56:33.441Z,3.47
2023-05-18T11:59:13.239Z,3.05
2023-05-18T12:01:41.205Z,2.65
2023-05-18T12:04:07.885Z,3.15
2023-05-18T12:06:34.567Z,3.60
2023-05-18T12:09:01.276Z,3.47
2023-05-18T12:11:27.801Z,3.28
2023-05-18T12:13:55.191Z,3.63
2023-05-18T12:16:21.853Z,3.17
2023-05-18T12:18:51.862Z,3.50
2023-05-18T12:21:22.376Z,3.13
2023-05-18T12:23:48.906Z,2.70
2023-05-18T12:26:17.880Z,3.00
2023-05-18T12:28:44.441Z,3.15
2023-05-18T12:31:11.629Z,3.72
2023-05-18T12:33:38.204Z,2.88
2023-05-18T12:36:09.665Z,2.60
2023-05-18T12:38:36.505Z,3.47
2023-05-18T12:41:03.033Z,3.67
2023-05-18T12:43:36.559Z,2.97
2023-05-18T12:46:03.853Z,2.63
2023-05-18T12:48:37.819Z,3.25
2023-05-18T12:51:04.525Z,2.42
2023-05-18T12:53:42.559Z,3.72
2023-05-18T12:56:11.436Z,2.88
2023-05-18T12:58:39.050Z,2.92
2023-05-18T13:01:09.832Z,2.92
2023-05-18T13:03:39.561Z,2.88
2023-05-18T13:06:07.010Z,2.95
2023-05-18T13:08:34.481Z,3.33
2023-05-18T13:11:13.623Z,2.80
2023-05-18T13:14:00.707Z,3.08
2023-05-18T13:16:28.391Z,3.20
2023-05-18T13:18:59.327Z,3.45
2023-05-18T13:21:26.169Z,3.28
2023-05-18T13:23:53.061Z,3.33
2023-05-18T13:26:21.869Z,4.30
2023-05-18T13:28:50.771Z,3.50
2023-05-18T13:31:17.632Z,2.88
2023-05-18T13:33:44.309Z,3.00
2023-05-18T13:36:10.897Z,3.30
2023-05-18T13:38:37.544Z,3.17
2023-05-18T13:41:04.774Z,2.67
2023-05-18T13:43:35.075Z,3.08
2023-05-18T13:46:01.973Z,3.75
2023-05-18T13:48:29.122Z,3.38
2023-05-18T13:50:56.581Z,3.03
2023-05-18T13:53:23.629Z,3.88
2023-05-18T13:55:50.384Z,2.88
2023-05-18T13:58:16.921Z,2.80
2023-05-18T14:00:43.721Z,2.90
2023-05-18T14:03:10.423Z,2.85
2023-05-18T14:05:37.279Z,3.08
2023-05-18T14:08:03.929Z,2.10
2023-05-18T14:10:30.828Z,2.42
2023-05-18T14:12:57.694Z,3.13
2023-05-18T14:15:24.281Z,3.00
2023-05-18T14:17:51.110Z,3.03
2023-05-18T14:20:18.068Z,3.65
2023-05-18T14:22:44.611Z,3.10
2023-05-18T14:25:11.170Z,2.60
2023-05-18T14:27:37.794Z,2.53
2023-05-18T14:30:06.163Z,3.03
2023-05-18T14:32:32.826Z,2.90
2023-05-18T14:34:59.425Z,2.63
2023-05-18T14:37:26.131Z,2.55
2023-05-18T14:39:52.823Z,2.63
2023-05-18T14:42:19.398Z,2.67
2023-05-18T14:44:46.798Z,2.88
2023-05-18T14:47:13.371Z,3.30
2023-05-18T14:49:39.976Z,5.13
2023-05-18T14:52:06.702Z,3.33
2023-05-18T14:54:33.264Z,3.85
2023-05-18T14:56:59.968Z,2.78
2023-05-18T14:59:26.543Z,2.85
2023-05-18T15:01:53.165Z,3.45
2023-05-18T15:04:21.802Z,2.80
2023-05-18T15:06:49.420Z,2.97
2023-05-18T15:09:16.073Z,2.53
2023-05-18T15:11:42.735Z,3.20
2023-05-18T15:14:09.336Z,2.70
2023-05-18T15:16:36.074Z,2.97
2023-05-18T15:19:04.483Z,2.88
2023-05-18T15:21:31.071Z,3.72
2023-05-18T15:23:57.592Z,3.70
2023-05-18T15:26:24.250Z,3.25
2023-05-18T15:28:50.770Z,3.70
2023-05-18T15:31:17.462Z,2.90
2023-05-18T15:33:44.149Z,3.72
2023-05-18T15:36:10.765Z,4.07
2023-05-18T15:38:37.353Z,3.85
2023-05-18T15:41:04.036Z,3.45
2023-05-18T15:43:31.025Z,2.97
2023-05-18T15:45:58.235Z,3.90
2023-05-18T15:48:24.900Z,3.58
2023-05-18T15:50:51.489Z,3.72
2023-05-18T15:53:18.049Z,3.22
2023-05-18T15:55:44.591Z,3.00
2023-05-18T15:58:12.938Z,3.30
2023-05-18T16:00:39.482Z,3.13
2023-05-18T16:03:06.182Z,3.90
2023-05-18T16:05:32.835Z,2.60
2023-05-18T16:07:59.712Z,3.03
2023-05-18T16:10:26.284Z,2.72
2023-05-18T16:12:52.820Z,2.40
2023-05-18T16:15:24.167Z,3.58
2023-05-18T16:17:50.815Z,3.10
2023-05-18T16:20:18.382Z,3.30
2023-05-18T16:22:46.735Z,3.30
2023-05-18T16:25:13.356Z,2.75
2023-05-18T16:27:39.906Z,3.28
2023-05-18T16:30:07.201Z,3.38
2023-05-18T16:32:33.984Z,2.72
2023-05-18T16:35:02.054Z,2.50
2023-05-18T16:37:28.744Z,3.40
2023-05-18T16:39:55.298Z,3.40
2023-05-18T16:42:22.783Z,2.83
2023-05-18T16:44:49.327Z,2.42
2023-05-18T16:47:16.127Z,2.67
2023-05-18T16:49:45.400Z,2.97
2023-05-18T16:52:12.088Z,2.47
2023-05-18T16:54:38.698Z,2.80
2023-05-18T16:57:06.187Z,2.97
2023-05-18T16:59:34.288Z,2.33
2023-05-18T17:02:01.459Z,3.53
2023-05-18T17:04:28.748Z,3.05
2023-05-18T17:06:55.666Z,3.00
2023-05-18T17:09:23.394Z,2.47
2023-05-18T17:11:49.965Z,2.83
2023-05-18T17:14:16.548Z,3.88
2023-05-18T17:16:43.191Z,2.22
2023-05-18T17:19:09.822Z,3.25
2023-05-18T17:21:36.391Z,2.90
2023-05-18T17:24:02.993Z,2.72
2023-05-18T17:26:30.712Z,3.38
2023-05-18T17:28:57.458Z,3.65
2023-05-18T17:31:24.096Z,2.92
2023-05-18T17:33:50.857Z,3.10
2023-05-18T17:36:18.124Z,3.03
2023-05-18T17:38:45.259Z,3.08
2023-05-18T17:41:11.975Z,2.88
2023-05-18T17:43:38.594Z,2.70
2023-05-18T17:46:05.215Z,2.72
2023-05-18T17:48:31.794Z,2.92
2023-05-18T17:50:58.778Z,3.13
2023-05-18T17:53:25.370Z,2.40
2023-05-18T17:55:52.566Z,2.60
2023-05-18T17:58:19.117Z,3.17
2023-05-18T18:00:45.869Z,2.85
2023-05-18T18:03:13.356Z,3.08
2023-05-18T18:05:40.018Z,2.97
2023-05-18T18:08:06.639Z,2.92
2023-05-18T18:10:33.399Z,2.85
2023-05-18T18:13:00.109Z,2.45
2023-05-18T18:15:27.577Z,2.95
2023-05-18T18:17:54.526Z,3.03
2023-05-18T18:20:21.517Z,2.70
2023-05-18T18:22:48.203Z,3.22
2023-05-18T18:25:14.726Z,3.22
2023-05-18T18:27:41.271Z,2.95
2023-05-18T18:30:08.284Z,3.75
2023-05-18T18:32:34.951Z,3.38
2023-05-18T18:35:01.664Z,3.15
2023-05-18T18:37:28.453Z,3.80
2023-05-18T18:39:55.069Z,3.13
2023-05-18T18:42:21.777Z,3.25
2023-05-18T18:44:48.540Z,3.35
2023-05-18T18:47:15.092Z,3.85
2023-05-18T18:49:41.734Z,3.60
2023-05-18T18:52:08.566Z,3.35
2023-05-18T18:54:35.114Z,3.15
2023-05-18T18:57:02.087Z,3.30
2023-05-18T18:59:28.664Z,2.95
2023-05-18T19:01:55.551Z,3.30
2023-05-18T19:04:22.152Z,3.20
2023-05-18T19:06:49.096Z,3.05
2023-05-18T19:09:15.860Z,3.65
2023-05-18T19:11:42.435Z,3.08
2023-05-18T19:14:09.435Z,2.97
2023-05-18T19:16:36.073Z,3.15
2023-05-18T19:19:08.559Z,3.30
2023-05-18T19:21:36.336Z,3.00
2023-05-18T19:24:03.647Z,2.75
2023-05-18T19:26:33.478Z,3.45
2023-05-18T19:29:00.062Z,4.55
2023-05-18T19:31:26.707Z,2.97
2023-05-18T19:33:53.311Z,3.25
2023-05-18T19:36:19.879Z,3.60
2023-05-18T19:38:52.323Z,3.90
2023-05-18T19:41:24.432Z,2.88
2023-05-18T19:43:51.243Z,2.75
2023-05-18T19:46:18.369Z,3.20
2023-05-18T19:48:45.080Z,3.15
2023-05-18T19:51:11.599Z,3.30
2023-05-18T19:53:38.158Z,3.00
2023-05-18T19:56:04.858Z,3.35
2023-05-18T19:58:31.673Z,3.50
2023-05-18T20:00:58.943Z,3.35
2023-05-18T20:03:26.406Z,3.92
2023-05-18T20:05:52.997Z,3.33
2023-05-18T20:08:20.072Z,3.58
2023-05-18T20:10:46.833Z,2.70
2023-05-18T20:13:13.479Z,2.55
2023-05-18T20:15:39.980Z,3.08
2023-05-18T20:18:07.198Z,2.95
2023-05-18T20:20:35.984Z,3.22
2023-05-18T20:23:03.585Z,3.22
2023-05-18T20:25:34.939Z,2.80
2023-05-18T20:28:03.235Z,3.13
2023-05-18T20:30:30.744Z,2.70
2023-05-18T20:33:00.050Z,2.97
2023-05-18T20:35:26.629Z,2.50
2023-05-18T20:37:55.823Z,2.83
2023-05-18T20:40:23.414Z,3.75
2023-05-18T20:42:54.022Z,2.75
2023-05-18T20:45:24.769Z,3.50
2023-05-18T20:47:54.414Z,3.05
2023-05-18T20:50:22.996Z,3.15
2023-05-18T20:52:50.075Z,3.10
2023-05-18T20:55:17.086Z,3.35
2023-05-18T20:57:44.760Z,4.20
2023-05-18T21:00:12.722Z,3.53
2023-05-18T21:02:44.889Z,3.78
2023-05-18T21:05:12.043Z,3.78
2023-05-18T21:07:39.978Z,3.78
2023-05-18T21:10:07.740Z,3.95
2023-05-18T21:12:34.268Z,3.40
2023-05-18T21:15:00.968Z,3.40
2023-05-18T21:17:27.559Z,3.20
2023-05-18T21:19:54.080Z,3.15
2023-05-18T21:22:21.013Z,3.75
2023-05-18T21:24:47.545Z,3.10
2023-05-18T21:27:14.066Z,3.10
2023-05-18T21:29:40.678Z,2.90
2023-05-18T21:32:07.326Z,3.17
2023-05-18T21:34:33.880Z,3.08
2023-05-18T21:37:01.189Z,3.08
2023-05-18T21:39:27.724Z,3.42
2023-05-18T21:41:54.334Z,3.20
2023-05-18T21:44:20.848Z,3.10
2023-05-18T21:46:47.398Z,3.08
2023-05-18T21:49:13.951Z,3.22
2023-05-18T21:51:40.979Z,3.22
2023-05-18T21:54:07.542Z,3.00
2023-05-18T21:56:34.648Z,2.60
2023-05-18T21:59:01.332Z,3.00
2023-05-18T22:01:28.043Z,3.72
2023-05-18T22:03:54.679Z,3.50
2023-05-18T22:06:21.310Z,2.80
2023-05-18T22:08:48.232Z,3.20
2023-05-18T22:11:14.919Z,2.97
2023-05-18T22:13:41.561Z,2.97
2023-05-18T22:16:08.100Z,3.00
2023-05-18T22:18:34.657Z,3.45
2023-05-18T22:21:01.238Z,3.28
2023-05-18T22:23:28.529Z,3.53
2023-05-18T22:25:55.049Z,2.95
2023-05-18T22:28:21.727Z,3.00
2023-05-18T22:30:49.142Z,3.38
2023-05-18T22:33:16.813Z,3.05
2023-05-18T22:35:44.007Z,2.47
2023-05-18T22:38:14.119Z,3.47
2023-05-18T22:40:40.818Z,2.85
2023-05-18T22:43:07.376Z,3.03
2023-05-18T22:45:33.962Z,3.88
2023-05-18T22:48:01.455Z,2.78
2023-05-18T22:50:28.407Z,2.70
2023-05-18T22:52:54.949Z,3.00
2023-05-18T22:55:21.462Z,3.20
2023-05-18T22:57:48.080Z,2.92
2023-05-18T23:00:14.939Z,3.42
2023-05-18T23:02:41.744Z,4.18
2023-05-18T23:05:08.944Z,3.10
2023-05-18T23:07:36.177Z,2.58
2023-05-18T23:10:05.944Z,3.20
2023-05-18T23:12:33.128Z,2.97
2023-05-18T23:15:02.436Z,3.00
2023-05-18T23:17:29.699Z,3.63
2023-05-18T23:19:58.594Z,3.15
2023-05-18T23:22:28.173Z,3.53
2023-05-18T23:24:54.712Z,3.20
2023-05-18T23:27:21.319Z,3.72
2023-05-18T23:29:47.840Z,3.45
2023-05-18T23:32:14.476Z,3.40
2023-05-18T23:34:41.400Z,3.50
2023-05-18T23:37:11.079Z,3.75
2023-05-18T23:39:40.503Z,3.38
2023-05-18T23:42:07.357Z,2.83
2023-05-18T23:44:34.166Z,3.28
2023-05-18T23:47:01.060Z,3.22
2023-05-18T23:49:27.849Z,3.65
2023-05-18T23:51:54.534Z,3.50
2023-05-18T23:54:21.345Z,4.20
2023-05-18T23:56:49.452Z,3.85
2023-05-18T23:59:16.227Z,4.03
